Time;durP1;ratioP1;P1;durP2;ratioP2;P2;SDS_P1;SDS_P2;PMS_P1;PMS_P2;Temp;Humidity;BMP_temperature;BMP_pressure;BME280_temperature;BME280_humidity;BME280_pressure;Samples;Min_cycle;Max_cycle;Signal;HPM_P1;HPM_P2
2022/08/24 00:01:16;;;;;;;12.80;10.55;;;;;;;20.65;72.31;101607.91;5058410;28;20033;-77
2022/08/24 00:03:44;;;;;;;10.90;9.77;;;;;;;20.62;71.56;101600.13;5060602;28;20364;-77
2022/08/24 00:06:13;;;;;;;11.52;9.85;;;;;;;20.57;71.19;101594.25;5058088;28;20032;-77
2022/08/24 00:08:40;;;;;;;10.50;9.40;;;;;;;20.54;71.96;101590.00;5058431;28;20040;-77
2022/08/24 00:11:06;;;;;;;10.63;9.18;;;;;;;20.49;72.12;101604.41;5058590;28;20136;-77
2022/08/24 00:13:32;;;;;;;10.50;9.40;;;;;;;20.44;72.25;101602.00;5061787;28;20024;-77
2022/08/24 00:15:57;;;;;;;11.50;9.98;;;;;;;20.42;72.46;101603.88;5055857;28;20086;-77
2022/08/24 00:18:23;;;;;;;14.85;11.93;;;;;;;20.39;73.12;101594.34;5057796;28;20029;-75
2022/08/24 00:20:48;;;;;;;13.55;11.80;;;;;;;20.36;73.51;101607.72;5057231;28;20039;-74
2022/08/24 00:23:14;;;;;;;15.35;12.52;;;;;;;20.36;73.94;101609.53;5060419;28;20074;-75
2022/08/24 00:25:40;;;;;;;13.95;11.88;;;;;;;20.33;72.64;101599.94;5056875;28;20032;-75
2022/08/24 00:28:06;;;;;;;17.40;12.48;;;;;;;20.28;73.28;101600.22;5054570;28;20549;-75
2022/08/24 00:30:31;;;;;;;14.73;13.25;;;;;;;20.27;74.14;101605.59;5058550;28;20116;-75
2022/08/24 00:32:57;;;;;;;15.95;13.98;;;;;;;20.28;74.74;101604.66;5056542;28;20056;-75
2022/08/24 00:35:23;;;;;;;17.92;13.43;;;;;;;20.26;75.22;101609.16;5057289;28;20480;-75
2022/08/24 00:37:50;;;;;;;14.43;12.73;;;;;;;20.23;73.78;101609.31;5041053;28;20048;-75
2022/08/24 00:40:29;;;;;;;14.35;12.85;;;;;;;20.17;73.16;101606.06;5055811;28;20036;-75
2022/08/24 00:42:55;;;;;;;16.90;13.10;;;;;;;20.17;75.30;101606.06;5058600;28;20036;-75
2022/08/24 00:45:21;;;;;;;18.23;14.52;;;;;;;20.16;75.67;101609.66;5059136;28;20030;-75
2022/08/24 00:47:58;;;;;;;15.60;13.25;;;;;;;20.17;74.21;101610.53;5061054;28;20033;-75
2022/08/24 00:50:48;;;;;;;14.85;13.32;;;;;;;20.16;72.99;101609.66;5058674;28;20137;-76
2022/08/24 00:53:25;;;;;;;15.82;13.32;;;;;;;20.13;74.09;101609.84;5057105;28;20107;-75
2022/08/24 00:55:55;;;;;;;15.98;14.27;;;;;;;20.13;74.89;101615.13;5056950;28;20026;-75
2022/08/24 00:58:28;;;;;;;18.60;14.77;;;;;;;20.11;75.44;101610.84;5058007;28;20025;-75
2022/08/24 01:00:57;;;;;;;17.23;14.93;;;;;;;20.09;76.02;101613.56;5056992;28;20300;-75
2022/08/24 01:03:24;;;;;;;15.80;14.20;;;;;;;20.06;74.50;101613.72;5058228;28;20103;-75
2022/08/24 01:05:49;;;;;;;16.25;14.55;;;;;;;20.00;75.10;101614.06;5046302;28;20113;-75
2022/08/24 01:08:15;;;;;;;14.45;12.77;;;;;;;19.93;74.40;101612.69;5058894;28;20137;-75
2022/08/24 01:10:49;;;;;;;14.38;12.88;;;;;;;19.92;74.48;101613.63;5055307;28;20096;-75
2022/08/24 01:13:15;;;;;;;17.77;14.75;;;;;;;19.89;75.48;101617.28;5055425;28;20456;-75
2022/08/24 01:15:44;;;;;;;17.90;15.63;;;;;;;19.84;76.40;101617.47;5043033;28;20116;-75
2022/08/24 01:21:06;;;;;;;17.15;15.27;;;;;;;19.79;76.39;101610.72;5057711;28;20068;-75
2022/08/24 01:23:44;;;;;;;17.52;14.32;;;;;;;19.78;74.94;101609.03;5056570;28;20027;-75
2022/08/24 01:26:17;;;;;;;18.95;14.73;;;;;;;19.75;75.54;101617.09;5062339;28;20593;-75
2022/08/24 01:28:44;;;;;;;19.67;15.60;;;;;;;19.70;75.93;101612.06;5040596;28;20024;-74
2022/08/24 01:31:09;;;;;;;18.15;16.05;;;;;;;19.70;77.29;101623.50;5055784;28;20028;-75
2022/08/24 01:33:35;;;;;;;19.77;16.02;;;;;;;19.69;77.47;101613.00;5061429;28;20032;-75
2022/08/24 01:36:13;;;;;;;19.55;16.45;;;;;;;19.69;77.38;101615.63;5061657;28;20638;-75
2022/08/24 01:38:39;;;;;;;16.45;14.60;;;;;;;19.67;76.45;101612.22;5059399;28;20154;-77
2022/08/24 01:41:04;;;;;;;18.92;16.10;;;;;;;19.63;76.73;101610.69;5059068;28;20112;-74
2022/08/24 01:43:30;;;;;;;22.67;17.83;;;;;;;19.63;77.32;101615.97;5059668;28;20147;-75
2022/08/24 01:45:55;;;;;;;17.67;15.82;;;;;;;19.60;76.39;101601.13;5061120;28;20475;-75
2022/08/24 01:48:21;;;;;;;19.67;16.45;;;;;;;19.60;76.78;101602.94;5058135;28;20064;-75
2022/08/24 01:50:47;;;;;;;19.33;16.95;;;;;;;19.56;76.91;101597.81;5062263;28;20016;-75
2022/08/24 01:53:13;;;;;;;17.75;15.95;;;;;;;19.55;76.53;101604.03;5060642;28;20055;-75
2022/08/24 01:55:39;;;;;;;17.50;14.60;;;;;;;19.46;74.33;101607.16;5041473;28;21524;-75
2022/08/24 01:58:05;;;;;;;15.85;13.35;;;;;;;19.40;75.16;101610.09;5059425;28;20058;-75
2022/08/24 02:00:30;;;;;;;18.25;13.90;;;;;;;19.35;75.56;101612.09;5059091;28;20488;-75
2022/08/24 02:02:56;;;;;;;18.38;14.40;;;;;;;19.34;75.93;101610.38;5059005;28;20032;-75
2022/08/24 02:05:23;;;;;;;16.65;14.15;;;;;;;19.29;76.38;101601.88;5058046;28;20025;-75
2022/08/24 02:07:49;;;;;;;16.85;14.55;;;;;;;19.25;76.24;101609.94;5064285;28;20021;-75
2022/08/24 02:10:15;;;;;;;19.17;15.00;;;;;;;19.28;77.02;101611.56;5021283;28;1072540;-75
2022/08/24 02:12:43;;;;;;;16.67;14.10;;;;;;;19.21;75.45;101613.66;5060165;28;20556;-74
2022/08/24 02:15:10;;;;;;;16.65;14.80;;;;;;;19.19;76.05;101609.38;5060786;28;20036;-74
2022/08/24 02:17:36;;;;;;;16.02;14.05;;;;;;;19.10;75.12;101608.06;5060968;28;20032;-75
2022/08/24 02:20:04;;;;;;;16.52;14.02;;;;;;;19.05;75.63;101605.63;5060069;28;21919;-75
2022/08/24 02:22:29;;;;;;;15.80;13.15;;;;;;;19.03;74.92;101607.50;5058368;28;20035;-75
2022/08/24 02:24:55;;;;;;;18.38;14.02;;;;;;;18.99;75.49;101605.94;5063122;28;20021;-75
2022/08/24 02:27:20;;;;;;;15.10;13.50;;;;;;;18.98;75.97;101611.28;5060425;28;20597;-75
2022/08/24 02:29:45;;;;;;;16.15;14.43;;;;;;;18.93;76.56;101617.63;5058150;28;20404;-75
2022/08/24 02:32:11;;;;;;;16.48;14.07;;;;;;;18.91;76.69;101618.59;5058645;28;20036;-75
2022/08/24 02:34:37;;;;;;;16.52;14.70;;;;;;;18.88;77.01;101619.63;5063177;28;20021;-75
2022/08/24 02:37:02;;;;;;;18.38;14.93;;;;;;;18.88;77.48;101618.75;5059645;28;20039;-75
2022/08/24 02:39:28;;;;;;;21.88;15.13;;;;;;;18.89;77.20;101620.47;5059172;28;20043;-75
2022/08/24 02:41:53;;;;;;;18.92;14.98;;;;;;;18.87;77.58;101625.81;5043050;28;20036;-75
2022/08/24 02:44:19;;;;;;;16.55;14.27;;;;;;;18.86;77.36;101620.63;5060856;28;20024;-75
2022/08/24 02:46:44;;;;;;;15.85;14.15;;;;;;;18.81;77.17;101628.75;5060907;28;20073;-75
2022/08/24 02:49:10;;;;;;;16.08;14.38;;;;;;;18.79;76.97;101626.19;5060863;28;20033;-75
2022/08/24 02:51:36;;;;;;;15.77;10.75;;;;;;;18.74;76.01;101627.34;5056757;28;20363;-75
2022/08/24 02:54:02;;;;;;;10.50;9.45;;;;;;;18.68;75.87;101633.78;5061556;28;20480;-75
2022/08/24 02:56:31;;;;;;;10.73;9.73;;;;;;;18.62;76.67;101626.97;5060181;28;20054;-75
2022/08/24 02:58:57;;;;;;;11.93;9.93;;;;;;;18.58;76.78;101633.34;5060366;28;20028;-75
2022/08/24 03:01:23;;;;;;;12.73;11.43;;;;;;;18.58;77.35;101622.81;5057991;28;20090;-75
2022/08/24 03:03:48;;;;;;;12.07;10.60;;;;;;;18.55;76.46;101629.97;5061692;28;20029;-75
2022/08/24 03:06:14;;;;;;;12.13;10.93;;;;;;;18.50;76.70;101628.44;5043751;28;20032;-75
2022/08/24 03:08:40;;;;;;;13.10;11.43;;;;;;;18.46;76.96;101626.00;5058088;28;20077;-75
2022/08/24 03:11:07;;;;;;;12.95;11.50;;;;;;;18.44;77.40;101617.34;5059214;28;20098;-75
2022/08/24 03:13:33;;;;;;;16.33;12.52;;;;;;;18.44;76.68;101615.53;5058194;28;21513;-75
2022/08/24 03:15:59;;;;;;;13.40;12.05;;;;;;;18.44;77.08;101614.69;5060513;28;20094;-75
2022/08/24 03:18:25;;;;;;;13.40;11.82;;;;;;;18.41;76.92;101612.19;5060598;28;21010;-75
2022/08/24 03:20:52;;;;;;;13.35;11.95;;;;;;;18.35;77.70;101616.81;5045676;28;20037;-75
2022/08/24 03:23:17;;;;;;;11.30;10.20;;;;;;;18.31;76.36;101620.50;5058995;28;20064;-75
2022/08/24 03:25:43;;;;;;;10.30;9.20;;;;;;;18.29;75.93;101621.53;5056889;28;20052;-75
2022/08/24 03:28:09;;;;;;;10.93;9.75;;;;;;;18.27;75.91;101613.69;5058383;28;20024;-75
2022/08/24 03:30:34;;;;;;;11.23;9.30;;;;;;;18.22;76.19;101615.69;5057998;28;20027;-75
2022/08/24 03:33:00;;;;;;;9.88;8.88;;;;;;;18.19;76.55;101611.38;5058324;28;20485;-75
2022/08/24 03:35:25;;;;;;;10.25;9.23;;;;;;;18.19;76.50;101615.81;5059068;28;20033;-74
2022/08/24 03:37:51;;;;;;;11.25;10.05;;;;;;;18.17;76.55;101617.66;5058097;28;20550;-75
2022/08/24 03:40:19;;;;;;;13.68;10.52;;;;;;;18.13;77.43;101600.28;5059760;28;20058;-75
2022/08/24 03:42:44;;;;;;;10.93;9.75;;;;;;;18.11;76.91;101608.25;5059670;28;20082;-75
2022/08/24 03:45:10;;;;;;;11.75;10.50;;;;;;;18.09;77.27;101611.91;5059763;28;20028;-75
2022/08/24 03:47:35;;;;;;;14.35;12.18;;;;;;;18.08;77.82;101604.94;5062190;28;20117;-75
2022/08/24 03:50:00;;;;;;;15.85;12.65;;;;;;;18.05;77.68;101598.00;5059007;28;20021;-75
2022/08/24 03:52:26;;;;;;;15.90;12.52;;;;;;;18.05;78.14;101609.41;5061896;28;20028;-75
2022/08/24 03:54:51;;;;;;;15.73;13.82;;;;;;;18.02;78.04;101606.91;5059990;28;20093;-75
2022/08/24 03:57:17;;;;;;;15.40;12.73;;;;;;;18.00;77.46;101619.28;5055490;28;20036;-75
2022/08/24 03:59:42;;;;;;;15.05;13.07;;;;;;;18.00;77.57;101615.81;5058867;28;20093;-74
2022/08/24 04:02:08;;;;;;;15.63;12.93;;;;;;;17.98;77.90;101612.38;5062345;28;20020;-75
2022/08/24 04:04:34;;;;;;;15.43;13.80;;;;;;;17.91;77.91;101609.13;5060025;28;20306;-75
2022/08/24 04:06:59;;;;;;;14.07;12.55;;;;;;;17.92;77.58;101624.00;5058817;28;20035;-75
2022/08/24 04:09:25;;;;;;;14.98;13.15;;;;;;;17.90;77.23;101615.31;5058644;28;20111;-75
2022/08/24 04:11:50;;;;;;;16.30;13.48;;;;;;;17.87;77.60;101623.34;5055628;28;20223;-75
2022/08/24 04:14:16;;;;;;;13.18;11.50;;;;;;;17.82;77.38;101622.69;5058503;28;20020;-74
2022/08/24 04:16:43;;;;;;;14.20;11.90;;;;;;;17.82;78.27;101617.44;5058657;28;20032;-74
2022/08/24 04:19:08;;;;;;;13.70;12.25;;;;;;;17.82;77.75;101620.06;5054365;28;20037;-74
2022/08/24 04:21:35;;;;;;;15.05;11.95;;;;;;;17.80;77.87;101621.91;5057457;28;20075;-75
2022/08/24 04:24:03;;;;;;;13.98;12.27;;;;;;;17.76;78.25;101623.81;5041208;28;20031;-74
2022/08/24 04:26:30;;;;;;;14.43;11.85;;;;;;;17.75;77.92;101622.97;5061678;28;20024;-75
2022/08/24 04:28:56;;;;;;;18.40;13.80;;;;;;;17.75;78.74;101630.00;5061844;28;20982;-75
2022/08/24 04:31:23;;;;;;;14.93;13.27;;;;;;;17.72;78.00;101631.00;5057773;28;20033;-75
2022/08/24 04:33:50;;;;;;;13.55;11.80;;;;;;;17.70;78.15;101638.09;5060895;28;20032;-75
2022/08/24 04:36:17;;;;;;;15.55;11.20;;;;;;;17.71;78.21;101631.03;5041913;28;20376;-75
2022/08/24 04:38:43;;;;;;;12.95;10.63;;;;;;;17.69;78.18;101631.13;5059159;28;20039;-76
2022/08/24 04:41:13;;;;;;;14.02;10.98;;;;;;;17.68;78.13;101632.03;5058215;28;20021;-75
2022/08/24 04:43:41;;;;;;;13.35;11.95;;;;;;;17.70;77.83;101643.38;5062959;28;20155;-75
2022/08/24 04:46:07;;;;;;;12.90;11.60;;;;;;;17.70;78.17;101640.72;5056994;28;20028;-75
2022/08/24 04:48:34;;;;;;;11.10;9.48;;;;;;;17.68;77.91;101634.69;5060488;28;20448;-75
2022/08/24 04:51:07;;;;;;;9.75;8.40;;;;;;;17.67;77.96;101640.03;5060981;28;20032;-75
2022/08/24 04:53:34;;;;;;;7.63;6.82;;;;;;;17.66;78.14;101639.16;5060497;28;20510;-75
2022/08/24 04:56:00;;;;;;;6.30;5.57;;;;;;;17.66;77.94;101639.16;5060351;28;20036;-75
2022/08/24 04:58:27;;;;;;;6.82;5.50;;;;;;;17.64;78.24;101650.66;5059308;28;20025;-75
2022/08/24 05:00:53;;;;;;;5.78;5.28;;;;;;;17.60;78.44;101648.16;5057080;28;20460;-75
2022/08/24 05:03:19;;;;;;;8.18;5.43;;;;;;;17.60;78.77;101644.66;5063332;28;20040;-75
2022/08/24 05:05:47;;;;;;;18.58;6.85;;;;;;;17.59;79.19;101641.19;5065905;28;20488;-75
2022/08/24 05:08:14;;;;;;;8.23;6.20;;;;;;;17.60;78.54;101642.03;5064021;28;20487;-76
2022/08/24 05:10:43;;;;;;;16.23;6.55;;;;;;;17.62;78.85;101642.81;5063629;28;20044;-75
2022/08/24 05:13:10;;;;;;;10.20;7.53;;;;;;;17.65;78.69;101647.97;5061243;28;20021;-75
2022/08/24 05:15:43;;;;;;;11.35;7.65;;;;;;;17.68;79.25;101654.84;5061194;28;20033;-75
2022/08/24 05:18:08;;;;;;;8.98;7.25;;;;;;;17.69;78.95;101649.53;5063795;28;20122;-74
2022/08/24 05:20:37;;;;;;;8.02;7.15;;;;;;;17.71;78.70;101660.00;5066032;28;20476;-75
2022/08/24 05:23:02;;;;;;;7.75;7.00;;;;;;;17.69;78.68;101659.19;5064127;28;20043;-74
2022/08/24 05:25:28;;;;;;;8.95;7.72;;;;;;;17.69;78.28;101660.06;5063480;28;20029;-75
2022/08/24 05:27:53;;;;;;;12.35;9.52;;;;;;;17.66;78.59;101660.19;5062700;28;20024;-75
2022/08/24 05:30:19;;;;;;;11.95;10.75;;;;;;;17.67;79.39;101661.91;5048514;28;20412;-75
2022/08/24 05:32:44;;;;;;;17.90;12.65;;;;;;;17.68;79.26;101660.13;5058868;28;20035;-75
2022/08/24 05:35:10;;;;;;;14.88;13.32;;;;;;;17.68;79.39;101674.16;5066631;28;20028;-75
2022/08/24 05:37:37;;;;;;;16.33;13.30;;;;;;;17.71;79.35;101660.88;5060988;28;20021;-75
2022/08/24 05:40:09;;;;;;;20.38;13.82;;;;;;;17.75;79.66;101659.81;5062177;28;20028;-75
2022/08/24 05:42:35;;;;;;;17.42;13.93;;;;;;;17.81;80.00;101663.09;5062960;28;20446;-75
2022/08/24 05:45:00;;;;;;;18.92;15.48;;;;;;;17.82;79.98;101665.66;5059084;28;20035;-75
2022/08/24 05:47:26;;;;;;;20.42;15.38;;;;;;;17.87;80.33;101668.09;5059185;28;20028;-75
2022/08/24 05:49:52;;;;;;;17.65;15.00;;;;;;;17.93;80.72;101666.97;5061242;28;20719;-74
2022/08/24 05:52:21;;;;;;;20.05;15.07;;;;;;;17.96;80.67;101667.69;5058770;28;20036;-75
2022/08/24 05:54:54;;;;;;;19.60;14.45;;;;;;;18.02;80.46;101677.13;5061740;28;20113;-75
2022/08/24 05:57:22;;;;;;;18.27;15.13;;;;;;;18.09;80.89;101675.09;5062495;28;20111;-75
2022/08/24 05:59:47;;;;;;;18.95;15.10;;;;;;;18.13;81.37;101672.25;5059423;28;20035;-74
2022/08/24 06:02:12;;;;;;;15.77;14.07;;;;;;;18.21;81.40;101666.66;5060249;28;20040;-74
2022/08/24 06:04:38;;;;;;;17.38;14.27;;;;;;;18.29;81.56;101671.56;5060289;28;20107;-75
2022/08/24 06:07:04;;;;;;;18.55;15.25;;;;;;;18.34;81.97;101672.22;5061759;28;20050;-75
2022/08/24 06:09:30;;;;;;;19.95;16.33;;;;;;;18.40;82.22;101679.81;5064393;28;20025;-75
2022/08/24 06:11:55;;;;;;;18.10;16.00;;;;;;;18.45;82.63;101675.22;5061848;28;20515;-75
2022/08/24 06:14:20;;;;;;;22.15;17.15;;;;;;;18.55;83.22;101677.41;5063884;28;20033;-75
2022/08/24 06:16:47;;;;;;;25.95;23.20;;;;;;;18.64;83.19;101680.47;5061819;28;20059;-75
2022/08/24 06:19:16;;;;;;;27.92;23.45;;;;;;;18.74;83.58;101682.69;5061932;28;20028;-75
2022/08/24 06:21:43;;;;;;;26.02;23.23;;;;;;;18.81;84.07;101689.38;5059930;28;20036;-76
2022/08/24 06:24:08;;;;;;;28.42;24.85;;;;;;;18.90;83.95;101690.72;5063572;28;20070;-75
2022/08/24 06:29:22;;;;;;;28.33;25.20;;;;;;;19.04;84.15;101687.47;5057946;28;20098;-75
2022/08/24 06:31:48;;;;;;;28.42;24.90;;;;;;;19.10;84.25;101690.66;5059389;28;20145;-74
2022/08/24 06:34:16;;;;;;;29.00;25.90;;;;;;;19.18;84.38;101695.56;5057807;28;20725;-75
2022/08/24 06:36:42;;;;;;;31.48;26.30;;;;;;;19.26;84.48;101698.69;5056080;28;20383;-75
2022/08/24 06:39:08;;;;;;;29.58;25.27;;;;;;;19.37;84.01;101694.66;5062604;28;20483;-75
2022/08/24 06:41:35;;;;;;;27.40;24.40;;;;;;;19.47;84.14;101695.91;5060220;28;20028;-75
2022/08/24 06:44:00;;;;;;;28.00;23.85;;;;;;;19.60;83.23;101697.97;5062486;28;20032;-75
2022/08/24 06:46:27;;;;;;;24.98;20.67;;;;;;;19.68;82.46;101698.41;5063390;28;20043;-75
2022/08/24 06:48:52;;;;;;;21.73;18.58;;;;;;;19.75;82.72;101697.19;5060665;28;20024;-75
2022/08/24 06:51:19;;;;;;;25.27;20.83;;;;;;;19.85;82.58;101695.75;5061527;28;20017;-74
2022/08/24 06:53:45;;;;;;;23.60;18.95;;;;;;;19.94;81.75;101701.56;5039896;28;20385;-74
2022/08/24 06:56:11;;;;;;;25.13;20.88;;;;;;;20.00;81.80;101695.94;5058606;28;20451;-74
2022/08/24 06:58:37;;;;;;;25.52;21.40;;;;;;;20.08;81.19;101699.03;5056088;28;20128;-74
2022/08/24 07:01:17;;;;;;;27.67;21.63;;;;;;;20.15;80.84;101700.41;5064917;28;20107;-75
2022/08/24 07:03:43;;;;;;;25.67;20.38;;;;;;;20.24;81.21;101700.88;5056728;28;20036;-74
2022/08/24 07:06:11;;;;;;;26.05;21.65;;;;;;;20.31;80.67;101707.53;5059520;28;20563;-74
2022/08/24 07:08:36;;;;;;;24.58;21.98;;;;;;;20.37;81.42;101707.19;5059560;28;20035;-75
2022/08/24 07:11:04;;;;;;;24.98;22.10;;;;;;;20.44;81.45;101708.59;5059717;28;20053;-75
2022/08/24 07:13:30;;;;;;;25.13;21.20;;;;;;;20.49;81.33;101710.13;5059203;28;20059;-75
2022/08/24 07:15:56;;;;;;;26.60;22.25;;;;;;;20.55;80.69;101707.16;5066953;28;20033;-75
2022/08/24 07:18:21;;;;;;;25.85;21.67;;;;;;;20.59;80.50;101713.97;5059684;28;20033;-75
2022/08/24 07:20:47;;;;;;;23.27;20.63;;;;;;;20.64;80.24;101706.66;5058949;28;20070;-75
2022/08/24 07:23:13;;;;;;;23.80;20.25;;;;;;;20.69;79.04;101709.88;5058707;28;20052;-75
2022/08/24 07:25:43;;;;;;;24.10;20.83;;;;;;;20.75;79.23;101711.38;5058754;28;20438;-75
2022/08/24 07:28:09;;;;;;;24.83;19.60;;;;;;;20.80;79.01;101708.50;5058091;28;20222;-75
2022/08/24 07:30:35;;;;;;;23.63;20.98;;;;;;;20.84;79.06;101707.34;5058115;28;20452;-75
2022/08/24 07:33:00;;;;;;;23.98;21.13;;;;;;;20.90;79.56;101709.69;5062076;28;20105;-75
2022/08/24 07:35:27;;;;;;;24.50;20.70;;;;;;;20.93;78.50;101715.63;5058577;28;20036;-75
2022/08/24 07:37:54;;;;;;;24.38;20.52;;;;;;;20.96;78.54;101712.00;5045404;28;20028;-75
2022/08/24 07:40:20;;;;;;;26.33;20.60;;;;;;;21.01;78.97;101709.91;5058635;28;20071;-75
2022/08/24 07:42:49;;;;;;;31.27;22.52;;;;;;;21.07;78.75;101709.59;5060786;28;20081;-75
2022/08/24 07:45:15;;;;;;;28.88;21.23;;;;;;;21.11;78.02;101712.06;5061241;28;20028;-75
2022/08/24 07:47:41;;;;;;;25.33;20.45;;;;;;;21.16;77.03;101708.22;5055630;28;20534;-75
2022/08/24 07:50:07;;;;;;;22.83;19.77;;;;;;;21.21;77.51;101707.94;5056094;28;20037;-75
2022/08/24 07:52:32;;;;;;;21.08;18.85;;;;;;;21.28;76.13;101709.31;5057467;28;20017;-75
2022/08/24 07:54:57;;;;;;;21.48;18.45;;;;;;;21.35;75.31;101713.28;5057708;28;20418;-75
2022/08/24 07:57:23;;;;;;;24.65;18.40;;;;;;;21.42;75.21;101703.22;5062459;28;20029;-75
2022/08/24 07:59:49;;;;;;;21.90;17.50;;;;;;;21.48;74.00;101699.38;5043729;28;20482;-75
2022/08/24 08:02:15;;;;;;;20.40;16.98;;;;;;;21.53;73.67;101706.09;5059206;28;20115;-75
2022/08/24 08:04:41;;;;;;;19.98;15.63;;;;;;;21.58;72.66;101705.81;5059981;28;20036;-75
2022/08/24 08:07:06;;;;;;;19.92;15.73;;;;;;;21.64;72.31;101710.78;5063200;28;20544;-75
2022/08/24 08:09:35;;;;;;;18.38;15.30;;;;;;;21.71;71.56;101716.56;5063039;28;20107;-75
2022/08/24 08:12:00;;;;;;;16.10;14.43;;;;;;;21.77;70.94;101716.22;5060457;28;20060;-75
2022/08/24 08:14:26;;;;;;;17.45;14.85;;;;;;;21.83;71.00;101715.00;5061767;28;20087;-75
2022/08/24 08:16:52;;;;;;;19.42;15.23;;;;;;;21.90;70.59;101715.47;5064550;28;20036;-75
2022/08/24 08:19:17;;;;;;;18.83;14.57;;;;;;;21.97;71.65;101722.09;5059346;28;20104;-75
2022/08/24 08:24:30;;;;;;;17.52;13.60;;;;;;;22.15;71.31;101725.44;5060586;28;20043;-75
2022/08/24 08:26:56;;;;;;;16.35;12.95;;;;;;;22.23;70.57;101728.47;5059488;28;20028;-75
2022/08/24 08:29:23;;;;;;;15.05;12.02;;;;;;;22.33;68.38;101730.56;5062381;28;20032;-75
2022/08/24 08:31:48;;;;;;;10.95;8.77;;;;;;;22.41;65.44;101726.50;5059853;28;20020;-75
2022/08/24 08:34:15;;;;;;;14.52;8.25;;;;;;;22.53;69.90;101730.22;5060393;28;20031;-75
2022/08/24 08:36:40;;;;;;;10.45;7.25;;;;;;;22.58;64.62;101727.28;5063418;28;20029;-75
2022/08/24 08:39:08;;;;;;;10.18;7.85;;;;;;;22.62;65.36;101723.50;5067370;28;20402;-75
2022/08/24 08:42:14;;;;;;;11.63;9.40;;;;;;;22.70;67.50;101730.97;5046071;28;20119;-75
2022/08/24 08:45:05;;;;;;;18.13;9.05;;;;;;;22.83;66.12;101725.72;5066877;28;20032;-75
2022/08/24 08:48:16;;;;;;;10.27;9.13;;;;;;;22.95;66.72;101729.38;5062104;28;20032;-75
2022/08/24 08:51:18;;;;;;;12.57;9.30;;;;;;;23.09;66.64;101726.69;5057091;28;20181;-75
2022/08/24 08:53:49;;;;;;;11.45;7.78;;;;;;;23.25;64.29;101725.72;5069206;28;20016;-74
2022/08/24 08:56:44;;;;;;;10.65;7.50;;;;;;;23.35;65.33;101726.81;5065317;28;20043;-75
2022/08/24 08:59:45;;;;;;;9.77;6.70;;;;;;;23.43;65.09;101724.50;5062976;28;20028;-74
2022/08/24 09:02:28;;;;;;;5.78;5.18;;;;;;;23.51;60.65;101725.81;5024029;28;20036;-74
2022/08/24 09:05:18;;;;;;;6.03;4.75;;;;;;;23.60;63.25;101730.47;5062852;28;20033;-75
2022/08/24 09:07:46;;;;;;;4.03;3.60;;;;;;;23.64;58.48;101724.88;5062236;28;20029;-75
2022/08/24 09:10:11;;;;;;;4.15;3.45;;;;;;;23.71;59.78;101727.97;5064262;28;20032;-75
2022/08/24 09:13:01;;;;;;;6.55;5.18;;;;;;;23.76;61.04;101725.84;5063892;28;20028;-75
2022/08/24 09:16:06;;;;;;;10.63;6.90;;;;;;;23.84;61.25;101727.13;5066086;28;20081;-74
2022/08/24 09:18:58;;;;;;;7.93;6.82;;;;;;;23.92;61.46;101733.63;5062712;28;20023;-75
2022/08/24 09:21:59;;;;;;;8.48;6.22;;;;;;;24.02;62.79;101728.56;5061295;28;20039;-74
2022/08/24 09:24:46;;;;;;;8.30;6.70;;;;;;;24.05;60.82;101724.84;5060985;28;20024;-74
2022/08/24 09:27:19;;;;;;;8.95;5.97;;;;;;;24.09;61.63;101724.50;5061012;28;20036;-74
2022/08/24 09:29:48;;;;;;;10.00;5.65;;;;;;;24.16;61.27;101729.41;5061038;28;20032;-74
2022/08/24 09:32:50;;;;;;;9.98;7.10;;;;;;;24.22;60.60;101737.81;5060329;28;20036;-74
2022/08/24 09:35:43;;;;;;;8.70;6.15;;;;;;;24.26;60.19;101727.78;5060946;28;20035;-74
2022/08/24 09:38:48;;;;;;;16.20;5.68;;;;;;;24.31;60.92;101736.31;5053097;28;20036;-74
2022/08/24 09:41:25;;;;;;;6.38;4.88;;;;;;;24.33;59.82;101734.41;5059531;28;20062;-75
2022/08/24 09:44:12;;;;;;;4.10;3.35;;;;;;;24.34;58.70;101735.25;5061728;28;20189;-75
2022/08/24 09:46:54;;;;;;;5.18;3.90;;;;;;;24.33;59.97;101729.06;5061087;28;20036;-77
2022/08/24 09:49:25;;;;;;;4.50;3.83;;;;;;;24.35;59.92;101731.63;5058677;28;20036;-74
2022/08/24 09:52:11;;;;;;;;;;;;;;;24.39;61.04;101728.66;5058898;28;20024;-75
2022/08/24 09:54:56;;;;;;;5.78;3.80;;;;;;;24.48;59.07;101732.47;5060493;28;19946;-75
2022/08/24 09:57:54;;;;;;;4.00;3.20;;;;;;;24.55;57.51;101723.09;5059369;28;20095;-74
2022/08/24 10:00:29;;;;;;;4.63;2.95;;;;;;;24.64;57.09;101732.22;5057333;28;20044;-74
2022/08/24 10:03:26;;;;;;;4.55;2.70;;;;;;;24.72;58.33;101729.03;5057335;28;20068;-74
2022/08/24 10:06:06;;;;;;;5.82;3.10;;;;;;;24.78;57.45;101722.41;5058605;28;20382;-74
2022/08/24 10:08:46;;;;;;;4.30;3.13;;;;;;;24.89;57.21;101726.97;5062659;28;20082;-74
2022/08/24 10:11:39;;;;;;;5.30;3.15;;;;;;;24.96;56.46;101715.75;5057089;28;20135;-74
2022/08/24 10:14:43;;;;;;;3.83;2.95;;;;;;;25.06;56.66;101725.75;5060784;28;20033;-74
2022/08/24 10:17:22;;;;;;;4.65;2.90;;;;;;;25.13;56.53;101716.31;5061533;28;20031;-75
2022/08/24 10:19:49;;;;;;;5.40;3.03;;;;;;;25.15;56.32;101711.72;5058836;28;20115;-74
2022/08/24 10:22:24;;;;;;;4.13;2.75;;;;;;;25.17;55.47;101716.97;5057332;28;20036;-74
2022/08/24 10:25:01;;;;;;;3.92;2.85;;;;;;;25.23;54.52;101712.03;5061051;28;20037;-74
2022/08/24 10:27:43;;;;;;;3.85;2.55;;;;;;;25.28;54.79;101709.84;5060436;28;20028;-75
2022/08/24 10:30:47;;;;;;;3.50;2.13;;;;;;;25.36;55.52;101700.44;5058229;28;20040;-74
2022/08/24 10:33:30;;;;;;;2.25;1.88;;;;;;;25.40;54.69;101707.25;5062377;28;20032;-74
2022/08/24 10:36:11;;;;;;;4.03;2.20;;;;;;;25.46;54.33;101704.13;5059764;28;20037;-75
2022/08/24 10:42:10;;;;;;;2.78;2.20;;;;;;;25.49;55.35;101706.56;5058458;28;20047;-74
2022/08/24 10:44:47;;;;;;;3.65;2.08;;;;;;;25.41;55.13;101704.47;5044390;28;20192;-75
2022/08/24 10:47:27;;;;;;;3.30;2.50;;;;;;;25.40;54.46;101696.59;5060370;28;20040;-75
2022/08/24 10:50:02;;;;;;;2.38;1.85;;;;;;;25.48;53.68;101690.72;5060091;28;20028;-75
2022/08/24 10:52:44;;;;;;;2.63;1.90;;;;;;;25.59;52.61;101696.94;5046671;28;20047;-75
2022/08/24 10:55:30;;;;;;;4.05;2.00;;;;;;;25.72;52.11;101688.81;5059060;28;20028;-75
2022/08/24 10:58:28;;;;;;;3.17;2.08;;;;;;;25.84;52.29;101691.53;5059463;28;20483;-74
2022/08/24 11:00:53;;;;;;;3.75;1.85;;;;;;;25.86;51.95;101687.75;5054379;28;20024;-75
2022/08/24 11:03:21;;;;;;;3.40;1.80;;;;;;;25.89;52.39;101692.84;5060314;28;20525;-74
2022/08/24 11:05:54;;;;;;;3.75;1.77;;;;;;;25.90;51.23;101683.03;5057691;28;20025;-74
2022/08/24 11:08:28;;;;;;;2.97;1.85;;;;;;;25.94;52.33;101683.66;5058662;28;20093;-75
2022/08/24 11:11:12;;;;;;;2.63;1.80;;;;;;;25.99;53.61;101681.47;5057433;28;20094;-75
2022/08/24 11:13:53;;;;;;;2.13;1.92;;;;;;;26.02;53.27;101681.22;5058093;28;20248;-74
2022/08/24 11:16:23;;;;;;;;;;;;;;;26.05;54.14;101681.00;5056096;28;20143;-75
2022/08/24 11:18:52;;;;;;;3.65;1.70;;;;;;;26.04;53.70;101687.28;5052163;28;19931;-74
2022/08/24 11:21:31;;;;;;;2.60;1.80;;;;;;;26.08;53.64;101680.75;5060418;28;20040;-74
2022/08/24 11:24:02;;;;;;;2.80;1.70;;;;;;;26.13;52.92;101672.41;5060269;28;20494;-74
2022/08/24 11:26:27;;;;;;;4.22;2.20;;;;;;;26.21;50.23;101683.34;5059858;28;20528;-75
2022/08/24 11:28:58;;;;;;;4.60;2.10;;;;;;;26.34;50.90;101680.53;5059950;28;20024;-74
2022/08/24 11:31:38;;;;;;;2.10;1.90;;;;;;;26.51;51.63;101679.19;5056140;28;20021;-74
2022/08/24 11:34:12;;;;;;;3.40;1.88;;;;;;;26.69;49.95;101673.31;5040285;28;20540;-75
2022/08/24 11:36:41;;;;;;;3.67;2.00;;;;;;;26.86;50.61;101669.28;5057864;28;20033;-74
2022/08/24 11:39:16;;;;;;;2.17;1.90;;;;;;;26.98;49.81;101670.97;5058646;28;20107;-74
2022/08/24 11:42:00;;;;;;;2.38;2.00;;;;;;;27.07;49.65;101672.03;5058742;28;20036;-75